หน้าหลัก
METAR-TAF:

METAR-TAF

ท่าอากาศยาน :

ฮาวานา, คิวบา

ละติจูด: 22-59N, ลองจิจูด: 082-24W, ความสูง: 59 ม.

การสังเกตสภาพอากาศปัจจุบัน

รายงานได้ทำขึ้นเมื่อ 1 ชั่วโมงและ 5 นาทีที่แล้ว ณ เวลา 16:50 UTC
ลม 8 นอตจากตะวันออกเฉียงเหนือ, แปรผันระหว่างเหนือ และตะวันออก
อุณหภูมิ 27°C
ความชื้น 54%
ความกดอากาศ 1018 hPa
ทัศนวิสัย: 9000 ม.
มีเมฆน้อยที่ความสูง 3000 ฟุต

METAR: MUHA 151650Z 05008KT 360V090 9000 FEW030 27/17 Q1018

เวลา: 13:55 (17:55 UTC)

การพยากรณ์

รายงานได้ทำขึ้นเมื่อ 55 นาทีที่แล้ว ณ เวลา 17:00 UTC
การพยากรณ์มีผลตั้งแต่วันที่ 15 ณ เวลา 18 UTC จนถึงวันที่ 16 ณ เวลา 18 UTC
ลม 13 นอตจากตะวันออกเฉียงเหนือ
ทัศนวิสัย: 9000 ม.
มีเมฆน้อยที่ความสูง 3000 ฟุต
กำลังกลายเป็น
ตั้งแต่วันที่ 16 ณ เวลา 02 UTC จนถึงวันที่ 16 ณ เวลา 04 UTC
ลม 5 นอตจากตะวันออก
กำลังกลายเป็น
ตั้งแต่วันที่ 16 ณ เวลา 13 UTC จนถึงวันที่ 16 ณ เวลา 15 UTC
ลม 11 นอตจากตะวันออก

TAF: MUHA 151700Z 1518/1618 04013KT 9000 FEW030 BECMG 1602/1604 08005KT BECMG 1613/1615 09011KT

สังเกตการณ์สภาพอากาศและพยากรณ์อากาศของสนามบินมากกว่า 4000 แห่ง (รายงาน METAR และ TAF).

สถานีที่ดูได้จะแสดงไว้ด้วยจุดสีเหลืองและสีแดงบนแผนที่.

เลื่อนเมาส์ไปเหนือจุดเพื่อดูชื่อสถานี.

แล้วคลิกเพื่อดูสังเกตการณ์และการพยากรณ์สภาพอากาศ.

ในการเปลี่ยนแผนที่: คลิกที่ปุ่มสีเขียวที่มีกากบาทสีดำเพื่อซูมเข้า; ที่ปุ่มสีเขียวที่มีขีดเพื่อซูมออก; หรือที่ลูกศรสีเขียวเพื่อไปยังแผนที่ที่อยู่ติดกัน.


METAR-TAF: